Time;durP1;ratioP1;P1;durP2;ratioP2;P2;SDS_P1;SDS_P2;PMS_P1;PMS_P2;Temp;Humidity;BMP_temperature;BMP_pressure;BME280_temperature;BME280_humidity;BME280_pressure;Samples;Min_cycle;Max_cycle;Signal;HPM_P1;HPM_P2
2023/10/08 00:01:26;;;;;;;7.72;5.60;;;11.20;99.90;;;12.03;97.22;98805.41;10442555;28;20229;-65
2023/10/08 00:06:30;;;;;;;5.10;4.60;;;11.20;99.90;;;12.02;95.60;98798.50;10442973;28;20554;-65
2023/10/08 00:11:37;;;;;;;5.90;5.30;;;11.20;99.90;;;11.91;95.32;98789.22;10441902;28;20233;-65
2023/10/08 00:16:40;;;;;;;7.78;5.47;;;11.10;99.90;;;11.75;95.78;98783.81;10440551;28;20249;-65
2023/10/08 00:21:45;;;;;;;8.20;6.22;;;11.10;99.90;;;11.82;96.50;98768.97;10441452;28;20225;-64
2023/10/08 00:26:50;;;;;;;9.07;6.70;;;11.10;99.90;;;11.94;96.88;98774.06;10441490;28;20615;-64
2023/10/08 00:31:56;;;;;;;8.23;6.07;;;11.30;99.90;;;12.08;96.85;98763.03;10440956;28;20255;-65
2023/10/08 00:37:00;;;;;;;6.78;5.70;;;11.40;99.90;;;12.17;96.92;98748.25;10439713;28;20225;-65
2023/10/08 00:42:07;;;;;;;10.27;6.15;;;11.40;99.90;;;12.17;96.96;98753.38;10440895;28;20747;-67
2023/10/08 00:47:11;;;;;;;8.27;5.18;;;11.50;99.90;;;12.22;96.27;98750.22;10439556;28;20224;-65
2023/10/08 00:52:30;;;;;;;6.15;4.82;;;11.50;99.90;;;12.22;95.75;98746.00;10439316;28;20254;-65
2023/10/08 00:57:36;;;;;;;5.85;5.25;;;11.40;99.90;;;12.18;96.06;98742.34;10441205;28;20238;-65
2023/10/08 01:02:45;;;;;;;7.25;5.53;;;11.30;99.90;;;12.07;95.75;98735.63;10437790;28;20233;-64
2023/10/08 01:07:51;;;;;;;5.70;4.95;;;11.20;99.90;;;11.94;96.10;98727.94;10439186;28;20233;-66
2023/10/08 01:13:05;;;;;;;6.95;5.13;;;11.10;99.90;;;11.86;96.50;98729.09;10440509;28;20267;-66
2023/10/08 01:18:14;;;;;;;6.75;5.18;;;11.10;99.90;;;11.81;97.22;98726.19;10438437;28;20236;-65
2023/10/08 01:23:20;;;;;;;5.95;4.60;;;11.10;99.90;;;11.85;96.69;98722.19;10436416;28;20232;-64
2023/10/08 01:28:28;;;;;;;8.40;5.57;;;11.00;99.90;;;11.90;97.02;98725.94;10439364;28;20241;-66
2023/10/08 01:33:37;;;;;;;5.93;5.32;;;11.10;99.90;;;11.88;97.55;98723.31;10438430;28;20221;-65
2023/10/08 01:38:42;;;;;;;6.78;5.10;;;11.10;99.90;;;11.91;96.37;98727.75;10436649;28;20260;-65
2023/10/08 01:43:45;;;;;;;6.38;5.00;;;11.10;99.90;;;11.97;96.19;98730.69;10438129;28;20287;-66
2023/10/08 01:48:53;;;;;;;7.00;4.90;;;11.20;99.90;;;11.98;97.09;98729.03;10436427;28;20603;-66
2023/10/08 01:53:58;;;;;;;5.97;4.57;;;11.20;99.90;;;12.08;95.32;98727.16;10436781;28;20236;-65
2023/10/08 01:59:01;;;;;;;6.25;4.72;;;11.30;99.90;;;12.07;95.04;98730.50;10436964;28;20643;-65
2023/10/08 02:04:06;;;;;;;7.13;4.60;;;11.30;99.90;;;12.15;94.40;98734.44;10434664;28;20731;-66
2023/10/08 02:09:13;;;;;;;6.05;4.53;;;11.30;99.90;;;12.11;94.07;98735.06;10436805;28;21087;-66
2023/10/08 02:14:17;;;;;;;7.38;4.72;;;11.30;99.90;;;12.04;94.34;98730.28;10436032;28;20355;-65
2023/10/08 02:19:26;;;;;;;6.10;4.50;;;11.20;99.90;;;11.98;94.73;98722.22;10439254;28;20308;-65
2023/10/08 02:24:32;;;;;;;5.82;4.32;;;11.20;99.90;;;11.90;94.85;98728.50;10433019;28;20316;-66
2023/10/08 02:29:36;;;;;;;4.82;4.05;;;11.10;99.90;;;11.80;95.23;98728.66;10436884;28;20749;-65
2023/10/08 02:34:39;;;;;;;6.22;4.65;;;11.00;99.90;;;11.65;96.42;98734.56;10437703;28;20232;-66
2023/10/08 02:39:44;;;;;;;5.75;4.38;;;10.80;99.90;;;11.57;96.18;98734.81;10432219;28;20225;-65
2023/10/08 02:44:47;;;;;;;5.40;4.55;;;10.70;99.90;;;11.51;96.31;98737.84;10433412;28;20251;-66
2023/10/08 02:49:52;;;;;;;6.43;4.40;;;10.70;99.90;;;11.46;96.02;98734.09;10435511;28;20233;-65
2023/10/08 02:54:56;;;;;;;5.82;5.13;;;10.60;99.90;;;11.33;97.23;98734.03;10434327;28;20229;-66
2023/10/08 02:59:59;;;;;;;6.80;5.28;;;10.50;99.90;;;11.26;98.49;98731.06;10432134;28;20835;-65
2023/10/08 03:05:08;;;;;;;6.18;4.97;;;10.50;99.90;;;11.30;97.91;98732.16;10446184;28;20225;-65
2023/10/08 03:10:18;;;;;;;5.22;4.53;;;10.50;99.90;;;11.30;98.26;98728.72;10447923;28;20709;-64
2023/10/08 03:15:29;;;;;;;6.30;4.93;;;10.50;99.90;;;11.34;98.25;98725.59;10454468;28;20229;-66
2023/10/08 03:20:42;;;;;;;5.55;5.03;;;10.60;99.90;;;11.31;99.20;98720.25;10446789;28;20221;-66
2023/10/08 03:25:47;;;;;;;7.20;5.25;;;10.50;99.90;;;11.34;98.65;98718.78;10452489;28;20239;-66
2023/10/08 03:30:50;;;;;;;6.00;5.03;;;10.50;99.90;;;11.30;98.67;98718.47;10448856;28;20223;-65
2023/10/08 03:35:55;;;;;;;6.50;4.60;;;10.50;99.90;;;11.24;98.35;98724.06;10450083;28;20717;-67
2023/10/08 03:41:08;;;;;;;5.85;4.65;;;10.40;99.90;;;11.21;98.63;98724.72;10455166;28;20224;-64
2023/10/08 03:46:15;;;;;;;4.97;4.47;;;10.30;99.90;;;11.12;98.37;98741.13;10452792;28;20225;-66
2023/10/08 03:51:21;;;;;;;6.50;5.82;;;10.30;99.90;;;11.03;98.86;98754.19;10445189;28;20312;-65
2023/10/08 03:56:29;;;;;;;7.07;5.38;;;10.20;99.90;;;10.99;98.59;98758.19;10439479;28;20286;-65
2023/10/08 04:01:34;;;;;;;6.63;5.22;;;10.20;99.90;;;10.88;98.10;98761.69;10436990;28;20236;-67
2023/10/08 04:06:38;;;;;;;6.63;5.15;;;10.10;99.90;;;10.91;98.54;98753.34;10437807;28;20734;-67
2023/10/08 04:12:03;;;;;;;5.88;4.65;;;10.10;99.90;;;10.88;98.07;98750.56;10439353;28;20221;-69
2023/10/08 04:17:08;;;;;;;5.63;4.80;;;10.10;99.90;;;10.80;98.26;98734.66;10437660;28;20228;-66
2023/10/08 04:22:15;;;;;;;5.32;4.82;;;10.00;99.90;;;10.82;98.05;98728.88;10436740;28;20229;-68
2023/10/08 04:27:22;;;;;;;4.72;4.32;;;10.00;99.90;;;10.82;98.88;98728.00;10440759;28;20245;-66
2023/10/08 04:32:25;;;;;;;5.75;4.95;;;10.00;99.90;;;10.75;99.28;98725.78;10434980;28;20691;-67
2023/10/08 04:37:33;;;;;;;6.55;4.88;;;10.00;99.90;;;10.85;97.81;98737.56;10437444;28;20229;-64
2023/10/08 04:42:37;;;;;;;7.65;5.50;;;10.00;99.90;;;10.88;98.38;98740.34;10439696;28;20229;-66
2023/10/08 04:47:43;;;;;;;8.10;7.40;;;10.20;99.90;;;10.98;96.39;98747.84;10434685;28;20620;-66
2023/10/08 04:52:58;;;;;;;8.63;6.32;;;10.10;99.90;;;10.88;97.53;98737.78;10435647;28;20885;-65
2023/10/08 04:58:19;;;;;;;5.90;5.03;;;10.10;99.90;;;10.94;98.00;98741.63;10437522;28;20225;-65
2023/10/08 05:03:23;;;;;;;6.95;4.97;;;10.20;99.90;;;10.93;97.97;98746.63;10429796;28;20237;-65
2023/10/08 05:08:33;;;;;;;7.90;6.25;;;10.20;99.90;;;10.91;98.34;98756.78;10433426;28;20612;-65
2023/10/08 05:13:55;;;;;;;6.57;5.28;;;10.20;99.90;;;10.90;96.71;98751.53;10436880;28;20229;-66
2023/10/08 05:19:24;;;;;;;7.63;6.93;;;10.00;99.90;;;10.71;97.71;98760.47;10425838;28;20228;-65
2023/10/08 05:24:37;;;;;;;5.68;5.03;;;9.90;99.90;;;10.64;97.22;98773.59;10422219;28;20229;-65
2023/10/08 05:41:04;;;;;;;7.13;5.03;;;9.80;99.90;;;10.51;98.83;98766.72;10428848;28;20224;-65
2023/10/08 05:46:39;;;;;;;8.20;5.18;;;9.70;99.90;;;10.39;98.72;98765.84;10430955;28;20329;-65
2023/10/08 05:52:11;;;;;;;7.38;5.57;;;9.70;99.90;;;10.38;98.83;98780.28;10429802;28;20340;-65
2023/10/08 05:57:24;;;;;;;6.97;5.40;;;9.70;99.90;;;10.49;98.38;98783.63;10427179;28;20228;-65
2023/10/08 06:02:48;;;;;;;6.95;5.45;;;9.70;99.90;;;10.64;97.61;98781.25;10429431;28;20302;-65
2023/10/08 06:08:10;;;;;;;11.85;10.85;;;9.80;99.90;;;10.79;98.24;98786.59;10430160;28;20246;-66
2023/10/08 06:13:19;;;;;;;12.95;11.95;;;10.00;99.90;;;11.09;96.91;98781.84;10428784;28;20607;-66
2023/10/08 06:18:26;;;;;;;10.18;9.18;;;10.30;99.90;;;11.16;96.88;98772.16;10433724;28;20236;-66
2023/10/08 06:23:35;;;;;;;7.20;6.05;;;10.40;99.90;;;11.45;95.88;98773.28;10430116;28;20287;-66
2023/10/08 06:28:40;;;;;;;5.47;4.97;;;10.70;99.90;;;11.77;94.87;98764.31;10436018;28;20590;-65
2023/10/08 06:33:45;;;;;;;5.63;4.43;;;10.90;99.90;;;12.07;91.98;98766.38;10435448;28;20874;-65
2023/10/08 06:38:49;;;;;;;9.00;6.47;;;11.10;99.90;;;12.04;92.18;98766.16;10431840;28;20217;-67
2023/10/08 06:44:02;;;;;;;24.75;22.25;;;11.10;99.90;;;11.97;92.83;98781.06;10442976;28;20307;-68
2023/10/08 06:49:12;;;;;;;7.10;5.60;;;11.10;99.90;;;12.15;92.25;98783.13;10441816;28;20217;-67
2023/10/08 06:54:17;;;;;;;7.15;5.70;;;11.30;99.90;;;12.21;92.73;98781.78;10441329;28;20237;-66
2023/10/08 06:59:23;;;;;;;6.15;5.20;;;11.40;99.90;;;12.39;91.59;98781.31;10442534;28;20233;-66
2023/10/08 07:04:29;;;;;;;6.07;5.38;;;11.50;99.90;;;12.55;90.39;98783.16;10439968;28;20229;-66
2023/10/08 07:09:36;;;;;;;7.22;5.32;;;11.70;99.90;;;12.68;90.12;98779.72;10389917;28;20233;-66
2023/10/08 07:14:41;;;;;;;7.90;6.07;;;11.80;99.90;;;12.72;90.09;98786.81;10370646;28;20253;-67
2023/10/08 07:19:50;;;;;;;7.72;6.53;;;11.90;99.90;;;12.80;91.51;98785.63;10367528;28;20317;-67
2023/10/08 07:24:53;;;;;;;8.15;6.22;;;12.00;99.90;;;13.18;88.62;98786.25;10367018;28;20252;-67
2023/10/08 07:29:59;;;;;;;10.57;5.95;;;12.30;99.90;;;13.19;89.17;98795.69;10383447;28;20230;-66
2023/10/08 07:35:23;;;;;;;7.32;5.75;;;12.40;99.90;;;13.34;87.48;98796.69;10401559;28;20237;-68
2023/10/08 07:40:30;;;;;;;9.63;7.53;;;12.50;99.90;;;13.55;87.72;98796.22;10411795;28;20277;-68
2023/10/08 07:45:35;;;;;;;9.00;6.85;;;12.70;99.90;;;13.73;84.96;98785.38;10439230;28;20275;-68
2023/10/08 07:50:45;;;;;;;8.18;5.55;;;12.90;99.90;;;13.91;83.97;98780.44;10444832;28;20217;-66
2023/10/08 07:55:49;;;;;;;8.93;5.70;;;13.10;99.90;;;13.85;83.67;98764.66;10442839;28;20236;-67
2023/10/08 08:00:54;;;;;;;8.75;5.80;;;13.00;99.90;;;14.06;84.14;98766.72;10437371;28;20225;-67
2023/10/08 08:06:00;;;;;;;8.10;5.90;;;13.30;99.90;;;14.28;83.57;98785.16;10442625;28;20339;-64
2023/10/08 08:11:05;;;;;;;6.50;5.32;;;13.50;99.90;;;14.78;81.06;98797.44;10437758;28;20540;-64
2023/10/08 08:16:17;;;;;;;6.63;5.65;;;14.00;99.90;;;15.16;78.60;98808.94;10439667;28;20231;-67
2023/10/08 08:21:23;;;;;;;7.90;6.15;;;14.40;99.90;;;15.76;76.41;98807.88;10441516;28;20240;-66
2023/10/08 08:26:29;;;;;;;7.35;6.00;;;15.00;99.90;;;16.51;75.03;98810.81;10435496;28;20315;-65
2023/10/08 08:31:35;;;;;;;7.05;5.85;;;16.00;99.90;;;17.21;70.12;98813.28;10430869;28;20237;-65
2023/10/08 08:36:46;;;;;;;7.45;5.80;;;16.70;99.90;;;17.69;69.06;98812.88;10437448;28;20743;-65
2023/10/08 08:41:49;;;;;;;8.25;5.70;;;17.10;99.90;;;17.85;67.66;98829.97;10443238;28;20712;-65
2023/10/08 08:46:53;;;;;;;6.70;5.43;;;17.10;99.90;;;18.30;64.27;98844.00;10435942;28;20316;-66
2023/10/08 08:52:00;;;;;;;5.47;4.85;;;17.70;99.90;;;18.45;63.10;98847.22;10426627;28;20306;-66
2023/10/08 08:57:06;;;;;;;6.30;4.97;;;17.60;99.90;;;18.50;64.21;98849.13;10438630;28;20235;-67
2023/10/08 09:02:14;;;;;;;8.38;5.93;;;17.70;99.90;;;18.96;61.34;98846.75;10440682;28;20229;-66
2023/10/08 09:07:22;;;;;;;6.38;4.75;;;18.20;99.90;;;19.29;59.41;98844.59;10439772;28;20233;-65
2023/10/08 09:12:27;;;;;;;7.88;4.90;;;18.60;99.90;;;19.66;57.80;98825.28;10433116;28;20787;-66
2023/10/08 09:17:30;;;;;;;7.68;5.00;;;19.20;99.90;;;20.08;55.36;98832.81;10436275;28;20225;-66
2023/10/08 09:22:35;;;;;;;5.60;3.88;;;19.50;99.90;;;20.48;51.89;98840.25;10433386;28;20225;-67
2023/10/08 09:27:46;;;;;;;6.60;4.22;;;20.10;97.00;;;21.08;51.48;98837.03;10433420;28;20236;-68
2023/10/08 09:32:49;;;;;;;6.10;4.40;;;20.70;96.60;;;21.45;51.02;98830.38;10431836;28;20220;-68
2023/10/08 09:37:57;;;;;;;7.03;4.75;;;21.00;95.80;;;22.07;49.77;98826.91;10433855;28;20279;-63
2023/10/08 09:43:02;;;;;;;7.10;4.28;;;21.60;95.10;;;22.60;47.80;98837.88;10436287;28;20232;-65
2023/10/08 09:48:12;;;;;;;7.07;4.20;;;22.10;93.70;;;22.85;48.10;98831.53;10432559;28;20236;-66
2023/10/08 09:53:24;;;;;;;5.70;4.00;;;22.30;94.10;;;23.04;46.96;98827.69;10434202;28;20379;-67
2023/10/08 09:58:29;;;;;;;7.25;4.13;;;22.30;93.40;;;23.02;46.68;98843.28;10434745;28;20224;-65
2023/10/08 10:03:36;;;;;;;5.65;4.07;;;22.30;93.10;;;22.99;46.75;98844.94;10435132;28;20607;-65
2023/10/08 10:08:42;;;;;;;7.60;4.20;;;22.20;93.40;;;22.92;46.76;98844.75;10434324;28;20251;-66
2023/10/08 10:13:47;;;;;;;6.70;4.25;;;22.00;93.30;;;23.04;46.93;98846.81;10437454;28;20225;-66
2023/10/08 10:18:51;;;;;;;5.97;4.05;;;22.30;93.20;;;23.39;45.40;98846.72;10449663;28;20312;-66
2023/10/08 10:23:56;;;;;;;5.65;3.95;;;22.70;92.20;;;23.56;45.79;98844.47;10443629;28;20247;-65
2023/10/08 10:29:19;;;;;;;7.20;4.47;;;22.80;92.30;;;23.49;46.98;98869.53;10454338;28;20228;-66
2023/10/08 10:34:27;;;;;;;4.75;4.18;;;22.80;92.80;;;23.63;46.29;98862.03;10452931;28;20239;-65
2023/10/08 10:39:39;;;;;;;7.05;4.30;;;22.70;92.90;;;23.92;44.69;98857.47;10439309;28;20531;-67
2023/10/08 10:44:42;;;;;;;6.30;4.18;;;23.20;91.70;;;24.04;44.96;98843.75;10447516;28;20217;-68
2023/10/08 10:49:52;;;;;;;4.57;3.80;;;23.40;91.60;;;24.09;43.93;98835.97;10444575;28;20237;-68
2023/10/08 10:54:59;;;;;;;7.05;4.50;;;23.40;90.80;;;24.13;44.14;98832.59;10445635;28;20231;-68
2023/10/08 11:00:47;;;;;;;7.43;4.35;;;23.50;90.50;;;23.71;44.10;98823.94;10451746;28;20230;-69
2023/10/08 11:05:37;;;;;;;6.15;4.38;;;23.20;90.40;;;23.60;45.43;98822.81;10441565;28;20324;-67
2023/10/08 11:10:49;;;;;;;6.45;4.10;;;22.60;91.70;;;23.78;44.92;98830.19;10442578;28;20229;-67
2023/10/08 11:15:52;;;;;;;5.80;4.20;;;23.00;91.50;;;23.88;45.32;98824.28;10447498;28;20304;-66
2023/10/08 11:21:15;;;;;;;6.40;4.20;;;23.20;91.30;;;23.97;44.74;98819.22;10436563;28;20225;-66
2023/10/08 11:26:25;;;;;;;6.03;4.25;;;23.20;91.10;;;23.83;45.15;98818.94;10437517;28;20248;-67
2023/10/08 11:31:33;;;;;;;7.85;4.30;;;23.10;91.40;;;23.99;44.91;98821.88;10437673;28;20221;-67
2023/10/08 11:36:48;;;;;;;6.30;4.22;;;23.10;91.50;;;24.03;44.81;98821.06;10439662;28;20650;-65
2023/10/08 11:42:06;;;;;;;5.60;4.05;;;23.00;91.30;;;23.94;44.55;98806.09;10420270;28;20225;-67
2023/10/08 11:47:13;;;;;;;5.53;4.18;;;23.00;91.20;;;23.80;44.98;98800.63;10373850;28;20217;-66
2023/10/08 11:52:21;;;;;;;7.93;4.30;;;22.80;91.50;;;23.82;44.50;98798.91;10379985;28;20236;-66
2023/10/08 11:57:26;;;;;;;7.70;4.75;;;22.80;91.10;;;23.55;45.55;98795.72;10405624;28;20237;-66
2023/10/08 12:02:29;;;;;;;5.82;3.90;;;22.60;91.90;;;23.51;46.40;98788.69;10406843;28;20232;-64
2023/10/08 12:07:36;;;;;;;5.45;4.20;;;22.60;92.20;;;23.47;46.15;98782.53;10407006;28;20701;-66
2023/10/08 12:12:41;;;;;;;6.03;4.47;;;22.60;92.00;;;23.54;46.06;98773.09;10399505;28;20222;-65
2023/10/08 12:17:44;;;;;;;6.65;4.20;;;22.70;92.00;;;24.09;43.38;98768.94;10399346;28;20233;-64
2023/10/08 12:22:48;;;;;;;5.90;4.35;;;23.30;90.40;;;24.26;43.22;98753.56;10404136;28;20248;-64
2023/10/08 12:27:52;;;;;;;6.35;4.13;;;23.50;90.00;;;24.27;43.68;98737.91;10410347;28;20233;-64
2023/10/08 12:32:57;;;;;;;8.45;4.80;;;23.50;90.00;;;24.45;42.91;98741.72;10400303;28;20236;-63
2023/10/08 12:38:00;;;;;;;8.38;4.20;;;23.50;89.30;;;24.27;43.77;98743.16;10404784;28;20599;-65
2023/10/08 12:43:07;;;;;;;7.88;4.78;;;23.30;90.20;;;24.23;43.60;98740.44;10417010;28;21024;-63
2023/10/08 12:48:13;;;;;;;7.95;4.30;;;23.30;90.40;;;24.17;44.08;98741.22;10392495;28;20245;-63
2023/10/08 12:53:17;;;;;;;7.15;4.15;;;23.20;90.70;;;24.16;44.01;98754.28;10392032;28;20252;-65
2023/10/08 12:58:25;;;;;;;6.63;3.85;;;23.30;90.50;;;24.08;44.34;98754.13;10393164;28;20240;-64
2023/10/08 13:03:31;;;;;;;7.45;4.22;;;23.20;90.40;;;23.83;45.12;98761.50;10392214;28;20244;-65
2023/10/08 13:08:34;;;;;;;7.00;4.32;;;23.10;90.90;;;23.77;43.66;98758.78;10389413;28;20256;-64
2023/10/08 13:13:39;;;;;;;7.85;4.47;;;23.10;90.00;;;23.63;44.90;98747.16;10391774;28;20615;-65
2023/10/08 13:18:43;;;;;;;5.18;4.18;;;23.00;90.60;;;23.74;45.22;98748.28;10375687;28;20237;-68
2023/10/08 13:23:48;;;;;;;7.40;4.38;;;22.90;90.80;;;23.75;45.59;98746.53;10364315;28;20230;-66
2023/10/08 13:28:54;;;;;;;7.47;4.85;;;23.00;91.40;;;23.65;46.01;98749.81;10398695;28;20218;-65
2023/10/08 13:34:00;;;;;;;9.88;4.90;;;22.90;91.30;;;23.61;46.46;98746.28;10362503;28;20316;-66
2023/10/08 13:39:08;;;;;;;9.07;4.97;;;22.90;91.50;;;23.83;46.30;98737.13;10431264;28;20964;-64
2023/10/08 13:44:13;;;;;;;6.70;4.40;;;23.00;91.90;;;23.76;46.83;98728.31;10436261;28;20315;-64
2023/10/08 13:49:18;;;;;;;7.38;4.53;;;23.00;92.00;;;23.68;46.55;98728.97;10436454;28;20294;-64
2023/10/08 13:54:21;;;;;;;5.68;3.85;;;22.90;92.00;;;23.72;45.92;98734.34;10431035;28;20225;-64
2023/10/08 13:59:26;;;;;;;7.78;4.20;;;22.90;91.50;;;23.74;46.21;98740.44;10430201;28;20224;-65
2023/10/08 14:04:33;;;;;;;8.88;4.70;;;22.90;91.50;;;23.70;45.55;98738.66;10430713;28;20225;-64
2023/10/08 14:09:38;;;;;;;8.98;4.55;;;23.00;91.20;;;23.56;45.44;98737.47;10430134;28;20233;-65
2023/10/08 14:14:44;;;;;;;6.70;4.32;;;22.90;90.70;;;23.68;45.52;98729.84;10432268;28;20578;-65
2023/10/08 14:19:51;;;;;;;8.52;4.25;;;22.90;91.10;;;23.65;45.85;98729.81;10431332;28;20724;-65
2023/10/08 14:24:59;;;;;;;9.20;4.65;;;22.90;91.40;;;23.66;46.01;98730.69;10434473;28;20625;-64
2023/10/08 14:30:05;;;;;;;7.53;4.40;;;22.90;91.10;;;23.65;45.73;98721.97;10435307;28;20639;-66
2023/10/08 14:45:53;;;;;;;5.88;3.95;;;22.90;91.10;;;23.82;45.49;98712.75;10433303;28;20227;-63
2023/10/08 14:50:56;;;;;;;6.85;4.25;;;23.00;91.20;;;23.86;45.82;98712.81;10432387;28;20228;-64
2023/10/08 14:56:03;;;;;;;7.13;4.70;;;23.00;91.10;;;23.91;46.17;98711.16;10433094;28;20233;-64
2023/10/08 15:01:08;;;;;;;8.10;4.30;;;23.00;91.90;;;23.80;46.64;98703.13;10435662;28;20244;-65
2023/10/08 15:06:11;;;;;;;7.57;4.70;;;22.90;92.10;;;23.71;46.90;98709.06;10440977;28;20275;-65
2023/10/08 15:11:16;;;;;;;5.60;4.50;;;22.80;92.40;;;23.63;47.18;98709.75;10440386;28;20659;-64
2023/10/08 15:16:22;;;;;;;7.47;4.63;;;22.70;92.40;;;23.54;47.30;98710.44;10444038;28;21059;-64
2023/10/08 15:21:25;;;;;;;8.65;4.68;;;22.60;92.10;;;23.51;46.93;98699.94;10441835;28;20232;-68
2023/10/08 15:26:30;;;;;;;6.75;4.50;;;22.60;92.10;;;23.45;47.27;98698.09;10432373;28;20231;-65
2023/10/08 15:31:34;;;;;;;7.40;4.88;;;22.50;92.30;;;23.51;47.17;98702.56;10433606;28;20228;-65
2023/10/08 15:36:38;;;;;;;7.25;5.18;;;22.50;92.50;;;23.39;47.94;98700.59;10429351;28;20229;-66
2023/10/08 15:41:43;;;;;;;5.88;4.25;;;22.40;93.00;;;23.25;48.74;98702.91;10438145;28;20225;-66
2023/10/08 15:46:48;;;;;;;6.60;4.40;;;22.30;93.70;;;23.13;48.54;98697.47;10433998;28;20799;-66
2023/10/08 15:51:52;;;;;;;6.72;4.32;;;22.20;93.10;;;23.02;48.52;98704.19;10434499;28;20224;-64
2023/10/08 15:56:55;;;;;;;8.10;4.72;;;22.00;93.30;;;22.92;48.66;98692.63;10432979;28;20244;-65
2023/10/08 16:01:59;;;;;;;7.93;4.78;;;21.90;93.60;;;22.70;50.24;98686.09;10432231;28;20221;-67
2023/10/08 16:07:03;;;;;;;7.32;4.82;;;21.60;94.60;;;22.36;51.05;98690.50;10439339;28;20323;-64
2023/10/08 16:12:07;;;;;;;8.30;4.78;;;21.40;95.10;;;22.14;53.01;98699.50;10444045;28;20228;-66
2023/10/08 16:17:15;;;;;;;8.88;5.13;;;21.10;96.90;;;21.91;55.03;98703.25;10439262;28;20235;-64
2023/10/08 16:22:19;;;;;;;6.22;4.50;;;20.80;98.40;;;21.67;56.41;98700.91;10435816;28;20827;-66
2023/10/08 16:27:22;;;;;;;10.85;7.07;;;20.60;99.30;;;21.53;56.77;98704.00;10435421;28;20316;-64
2023/10/08 16:32:27;;;;;;;8.30;7.35;;;20.50;99.70;;;21.37;58.45;98696.59;10436353;28;20221;-66
2023/10/08 16:37:30;;;;;;;11.75;7.93;;;20.40;99.90;;;21.35;62.28;98699.16;10435126;28;20271;-65
2023/10/08 16:42:35;;;;;;;22.90;13.95;;;20.30;99.90;;;21.14;64.62;98691.59;10433294;28;20629;-65
2023/10/08 16:47:39;;;;;;;20.75;11.25;;;20.10;99.90;;;20.86;66.79;98700.34;10435012;28;20248;-65
2023/10/08 16:52:43;;;;;;;30.00;16.90;;;19.80;99.90;;;20.73;67.04;98707.72;10436873;28;20339;-67
2023/10/08 16:57:46;;;;;;;34.33;19.65;;;19.70;99.90;;;20.55;69.73;98714.09;10438310;28;20225;-68
2023/10/08 17:02:51;;;;;;;24.00;14.55;;;19.60;99.90;;;20.37;70.91;98721.25;10438399;28;20220;-66
2023/10/08 17:07:55;;;;;;;34.47;18.85;;;19.40;99.90;;;20.37;70.88;98713.47;10438157;28;20240;-65
2023/10/08 17:12:59;;;;;;;13.35;7.63;;;19.20;99.90;;;20.17;70.62;98715.41;10439311;28;20225;-69
2023/10/08 17:18:06;;;;;;;9.75;6.03;;;19.10;99.90;;;19.97;71.31;98709.56;10433721;28;20229;-67
2023/10/08 17:23:09;;;;;;;10.73;7.53;;;19.00;99.90;;;19.84;71.55;98710.88;10444885;28;20216;-65
2023/10/08 17:28:13;;;;;;;11.57;7.95;;;18.90;99.90;;;19.73;72.20;98714.81;10438906;28;20432;-64
2023/10/08 17:33:17;;;;;;;10.43;7.97;;;18.70;99.90;;;19.55;74.03;98710.72;10442250;28;20226;-65
2023/10/08 17:38:22;;;;;;;11.77;8.32;;;18.60;99.90;;;19.43;75.41;98705.09;10432329;28;20233;-65
2023/10/08 17:43:25;;;;;;;10.75;8.02;;;18.50;99.90;;;19.20;77.61;98701.69;10437062;28;20244;-68
2023/10/08 17:48:35;;;;;;;9.52;6.90;;;18.30;99.90;;;19.03;78.24;98706.25;10439703;28;20716;-65
2023/10/08 17:53:39;;;;;;;11.52;7.80;;;18.10;99.90;;;18.88;80.02;98703.06;10439698;28;20228;-66
2023/10/08 17:58:42;;;;;;;10.80;7.47;;;17.90;99.90;;;18.68;81.89;98720.38;10437933;28;20232;-67
2023/10/08 18:03:48;;;;;;;12.38;8.82;;;17.70;99.90;;;18.55;81.94;98725.94;10440285;28;20233;-66
2023/10/08 18:08:53;;;;;;;16.45;10.50;;;17.60;99.90;;;18.48;82.85;98736.84;10443046;28;20319;-66
2023/10/08 18:13:56;;;;;;;20.50;18.05;;;17.50;99.90;;;18.43;82.44;98731.50;10440118;28;20232;-65
2023/10/08 18:19:00;;;;;;;29.15;23.85;;;17.40;99.90;;;18.31;82.40;98731.88;10437496;28;20222;-64
2023/10/08 18:24:06;;;;;;;17.90;16.00;;;17.30;99.90;;;18.12;82.92;98734.56;10440543;28;20608;-66
2023/10/08 18:29:11;;;;;;;24.17;20.00;;;17.10;99.90;;;17.96;82.47;98736.47;10436920;28;20228;-65
2023/10/08 18:34:18;;;;;;;10.52;8.18;;;17.00;99.90;;;17.85;82.28;98742.03;10442164;28;20653;-64
2023/10/08 18:39:21;;;;;;;11.75;7.35;;;16.90;99.90;;;17.59;83.13;98728.81;10449833;28;20224;-64
2023/10/08 18:44:25;;;;;;;8.18;6.28;;;16.60;99.90;;;17.60;82.80;98719.34;10434904;28;20232;-65
2023/10/08 18:49:29;;;;;;;10.60;6.85;;;16.60;99.90;;;17.32;84.38;98715.59;10444252;28;20228;-64
2023/10/08 18:54:34;;;;;;;10.98;7.88;;;16.40;99.90;;;17.29;84.13;98724.09;10441782;28;20224;-65
2023/10/08 18:59:37;;;;;;;11.95;9.07;;;16.30;99.90;;;17.13;85.43;98725.91;10454190;28;20228;-63
2023/10/08 19:04:42;;;;;;;11.40;9.15;;;16.20;99.90;;;17.07;85.56;98726.53;10448656;28;20233;-64
2023/10/08 19:09:47;;;;;;;10.48;8.50;;;16.10;99.90;;;16.94;86.52;98722.50;10448281;28;20237;-65
2023/10/08 19:14:50;;;;;;;11.02;8.05;;;16.00;99.90;;;16.80;87.54;98715.81;10453322;28;20614;-65
2023/10/08 19:19:54;;;;;;;10.50;7.18;;;15.80;99.90;;;16.63;87.66;98715.88;10440099;28;20615;-64
2023/10/08 19:24:58;;;;;;;9.48;6.80;;;15.70;99.90;;;16.67;87.26;98709.16;10450059;28;20224;-64
2023/10/08 19:30:06;;;;;;;8.10;7.10;;;15.70;99.90;;;16.46;88.38;98709.03;10445115;28;20232;-65
2023/10/08 19:35:11;;;;;;;10.80;6.72;;;15.50;99.90;;;16.42;88.91;98712.25;10423293;28;20225;-64
2023/10/08 19:40:14;;;;;;;9.63;7.40;;;15.50;99.90;;;16.31;89.58;98724.69;10414192;28;20236;-66
2023/10/08 19:45:19;;;;;;;8.38;6.65;;;15.40;99.90;;;16.40;89.06;98712.22;10419533;28;20280;-64
2023/10/08 19:50:26;;;;;;;10.63;6.43;;;15.40;99.90;;;16.14;89.42;98721.28;10404690;28;20237;-65
2023/10/08 19:55:29;;;;;;;8.35;6.47;;;15.20;99.90;;;16.03;89.14;98716.41;10381360;28;20229;-66
2023/10/08 20:00:35;;;;;;;9.50;6.47;;;15.10;99.90;;;15.95;89.14;98724.63;10382385;28;20316;-65
2023/10/08 20:05:40;;;;;;;10.45;6.18;;;15.00;99.90;;;15.82;89.46;98732.53;10390994;28;20324;-64
2023/10/08 20:10:43;;;;;;;7.65;6.40;;;14.90;99.90;;;15.74;90.16;98728.72;10386695;28;20322;-63
2023/10/08 20:15:50;;;;;;;9.98;6.93;;;14.80;99.90;;;15.64;90.95;98727.31;10386249;28;20230;-64
2023/10/08 20:20:55;;;;;;;9.25;7.45;;;14.70;99.90;;;15.47;91.72;98729.03;10381679;28;22537;-64
2023/10/08 20:25:58;;;;;;;9.57;7.20;;;14.50;99.90;;;15.31;92.98;98716.16;10378874;28;20763;-66
2023/10/08 20:31:02;;;;;;;8.43;7.00;;;14.40;99.90;;;15.21;92.73;98712.22;10372906;28;20222;-66
2023/10/08 20:36:07;;;;;;;10.57;6.85;;;14.30;99.90;;;15.11;93.34;98699.66;10374799;28;20738;-65
2023/10/08 20:41:16;;;;;;;9.68;7.25;;;14.20;99.90;;;14.91;94.91;98702.84;10377111;28;20228;-66
2023/10/08 20:46:21;;;;;;;8.55;6.53;;;14.00;99.90;;;14.91;94.15;98708.91;10373128;28;20230;-66
2023/10/08 20:51:26;;;;;;;8.45;6.72;;;14.00;99.90;;;14.78;94.47;98707.34;10372943;28;20236;-66
2023/10/08 20:56:29;;;;;;;8.30;6.75;;;13.90;99.90;;;14.70;95.10;98702.59;10370724;28;20238;-65
2023/10/08 21:01:33;;;;;;;9.77;6.05;;;13.80;99.90;;;14.66;95.47;98708.38;10377935;28;20577;-66
2023/10/08 21:06:37;;;;;;;8.30;7.10;;;13.70;99.90;;;14.58;95.36;98702.81;10368575;28;20256;-65
2023/10/08 21:11:42;;;;;;;7.70;5.78;;;13.70;99.90;;;14.51;94.63;98692.97;10373391;28;20618;-65
2023/10/08 21:16:46;;;;;;;8.57;6.78;;;13.60;99.90;;;14.49;95.17;98691.97;10372807;28;20744;-65
2023/10/08 21:21:50;;;;;;;9.00;6.57;;;13.60;99.90;;;14.40;95.02;98689.78;10367776;28;22797;-65
2023/10/08 21:26:54;;;;;;;7.63;5.97;;;13.50;99.90;;;14.31;95.57;98687.59;10367534;28;20309;-66
2023/10/08 21:31:57;;;;;;;9.75;6.55;;;13.40;99.90;;;14.22;95.80;98681.91;10374608;28;20264;-64